Time;durP1;ratioP1;P1;durP2;ratioP2;P2;SDS_P1;SDS_P2;PMS_P1;PMS_P2;Temp;Humidity;BMP_temperature;BMP_pressure;BME280_temperature;BME280_humidity;BME280_pressure;Samples;Min_cycle;Max_cycle;Signal;HPM_P1;HPM_P2
2023/07/08 00:00:55;;;;;;;7.63;6.93;;;;;;;;;;5051418;28;20473;-86
2023/07/08 00:03:23;;;;;;;9.43;8.50;;;;;;;;;;5051420;28;20452;-85
2023/07/08 00:05:54;;;;;;;7.47;6.87;;;;;;;;;;5047449;28;20470;-85
2023/07/08 00:08:21;;;;;;;7.53;6.80;;;;;;;;;;5052077;28;20420;-88
2023/07/08 00:10:49;;;;;;;7.97;6.93;;;;;;;;;;5044339;28;20511;-87
2023/07/08 00:13:18;;;;;;;9.60;8.40;;;;;;;;;;5056919;28;20471;-90
2023/07/08 00:15:48;;;;;;;8.43;7.57;;;;;;;;;;5043334;28;20466;-88
2023/07/08 00:18:18;;;;;;;11.40;8.00;;;;;;;;;;5056088;28;20453;-86
2023/07/08 00:20:46;;;;;;;8.10;7.40;;;;;;;;;;5060832;28;20468;-84
2023/07/08 00:23:14;;;;;;;11.30;8.00;;;;;;;;;;5096791;22;20473;-84
2023/07/08 00:25:43;;;;;;;9.53;8.57;;;;;;;;;;5099356;22;20476;-83
2023/07/08 00:28:10;;;;;;;8.30;7.60;;;;;;;;;;5047446;28;20492;-85
2023/07/08 00:30:37;;;;;;;8.83;7.60;;;;;;;;;;5257808;23;20571;-86
2023/07/08 00:35:55;;;;;;;12.63;8.20;;;;;;;;;;4968071;29;20460;-87
2023/07/08 00:38:26;;;;;;;9.33;8.33;;;;;;;;;;4961934;29;20484;-85
2023/07/08 00:41:03;;;;;;;8.90;8.10;;;;;;;;;;4962886;28;20477;-85
2023/07/08 00:43:36;;;;;;;9.17;8.23;;;;;;;;;;4965798;28;20446;-87
2023/07/08 00:48:58;;;;;;;8.90;8.07;;;;;;;;;;5469539;23;20731;-85
2023/07/08 00:51:26;;;;;;;9.87;8.97;;;;;;;;;;5003777;28;20474;-85
2023/07/08 00:53:53;;;;;;;9.97;9.03;;;;;;;;;;5006452;28;20476;-88
2023/07/08 00:56:29;;;;;;;8.53;7.80;;;;;;;;;;5478429;23;20583;-86
2023/07/08 00:58:58;;;;;;;8.77;7.87;;;;;;;;;;4968277;28;20507;-88
2023/07/08 01:01:27;;;;;;;8.90;7.70;;;;;;;;;;4965969;28;20477;-90
2023/07/08 01:04:01;;;;;;;9.40;8.60;;;;;;;;;;4954081;28;20524;-87
2023/07/08 01:06:31;;;;;;;9.50;8.67;;;;;;;;;;4964293;28;20707;-88
2023/07/08 01:09:02;;;;;;;9.43;7.73;;;;;;;;;;4953859;28;20449;-87
2023/07/08 01:11:30;;;;;;;8.13;7.43;;;;;;;;;;4964565;28;20831;-87
2023/07/08 01:14:03;;;;;;;9.07;8.17;;;;;;;;;;4966932;28;20849;-89
2023/07/08 01:16:33;;;;;;;8.80;8.10;;;;;;;;;;4967175;29;20500;-91
2023/07/08 01:19:10;;;;;;;10.57;8.43;;;;;;;;;;4968808;28;20662;-88
2023/07/08 01:21:40;;;;;;;8.40;7.60;;;;;;;;;;4956875;28;20714;-88
2023/07/08 01:24:09;;;;;;;14.00;9.73;;;;;;;;;;4959824;28;20538;-83
2023/07/08 01:26:38;;;;;;;8.90;7.70;;;;;;;;;;4962024;28;20486;-86
2023/07/08 01:29:07;;;;;;;9.37;8.50;;;;;;;;;;4960768;28;20521;-86
2023/07/08 01:31:35;;;;;;;10.63;8.97;;;;;;;;;;4959013;28;20456;-87
2023/07/08 01:34:05;;;;;;;10.47;8.90;;;;;;;;;;4953687;28;20454;-89
2023/07/08 01:39:13;;;;;;;9.93;8.70;;;;;;;;;;4932648;29;20471;-87
2023/07/08 01:44:27;;;;;;;11.13;10.00;;;;;;;;;;5087472;23;20496;-89
2023/07/08 01:47:02;;;;;;;10.80;8.90;;;;;;;;;;4964765;28;20502;-85
2023/07/08 01:49:30;;;;;;;10.33;9.17;;;;;;;;;;4959508;28;20423;-86
2023/07/08 01:52:00;;;;;;;11.93;10.80;;;;;;;;;;4966886;28;20463;-88
2023/07/08 01:54:28;;;;;;;11.17;9.70;;;;;;;;;;5030925;23;20452;-86
2023/07/08 01:56:57;;;;;;;11.47;9.90;;;;;;;;;;5228040;23;20462;-87
2023/07/08 01:59:25;;;;;;;10.57;9.70;;;;;;;;;;5114626;23;20548;-88
2023/07/08 02:01:56;;;;;;;12.00;11.00;;;;;;;;;;5115087;23;20958;-88
2023/07/08 02:07:07;;;;;;;11.23;10.03;;;;;;;;;;5470465;23;20497;-92
2023/07/08 02:09:36;;;;;;;12.13;10.90;;;;;;;;;;4966369;29;20441;-88
2023/07/08 02:12:04;;;;;;;10.93;9.83;;;;;;;;;;4964450;28;20463;-90
2023/07/08 02:14:33;;;;;;;10.40;9.10;;;;;;;;;;4956310;28;20449;-88
2023/07/08 02:17:00;;;;;;;11.53;10.43;;;;;;;;;;4966116;29;20505;-84
2023/07/08 02:19:28;;;;;;;9.87;9.07;;;;;;;;;;4962626;28;20445;-84
2023/07/08 02:21:56;;;;;;;10.40;9.53;;;;;;;;;;4962826;28;20575;-84
2023/07/08 02:24:23;;;;;;;11.13;10.03;;;;;;;;;;4961859;28;20520;-87
2023/07/08 02:26:50;;;;;;;10.33;9.30;;;;;;;;;;4962152;28;20415;-85
2023/07/08 02:29:18;;;;;;;10.50;9.50;;;;;;;;;;4962874;28;20412;-85
2023/07/08 02:31:46;;;;;;;11.60;10.60;;;;;;;;;;4970599;28;20463;-89
2023/07/08 02:34:13;;;;;;;10.13;9.30;;;;;;;;;;4965523;28;20425;-80
2023/07/08 02:36:41;;;;;;;10.20;9.37;;;;;;;;;;4968020;29;20453;-82
2023/07/08 02:39:11;;;;;;;10.80;9.73;;;;;;;;;;4962916;28;20471;-83
2023/07/08 02:41:39;;;;;;;14.43;10.13;;;;;;;;;;4962596;29;20484;-86
2023/07/08 02:44:06;;;;;;;10.30;9.40;;;;;;;;;;4973332;28;20436;-85
2023/07/08 02:46:34;;;;;;;11.60;10.50;;;;;;;;;;4973870;28;20449;-86
2023/07/08 02:49:01;;;;;;;12.60;10.00;;;;;;;;;;4967056;28;20452;-86
2023/07/08 02:51:29;;;;;;;11.73;9.87;;;;;;;;;;4956736;28;20453;-86
2023/07/08 02:53:56;;;;;;;11.03;10.03;;;;;;;;;;4963278;29;20738;-88
2023/07/08 02:56:26;;;;;;;11.47;10.40;;;;;;;;;;4961050;29;20449;-87
2023/07/08 02:58:54;;;;;;;10.90;9.80;;;;;;;;;;4959936;29;20449;-87
2023/07/08 03:01:23;;;;;;;10.93;10.00;;;;;;;;;;4965395;28;20518;-88
2023/07/08 03:03:50;;;;;;;10.67;9.17;;;;;;;;;;4965326;28;20481;-87
2023/07/08 03:06:18;;;;;;;11.10;9.77;;;;;;;;;;4956430;28;20445;-85
2023/07/08 03:08:45;;;;;;;12.10;11.10;;;;;;;;;;4957635;29;20876;-86
2023/07/08 03:11:13;;;;;;;9.67;8.77;;;;;;;;;;4958396;28;20474;-89
2023/07/08 03:13:40;;;;;;;11.00;10.00;;;;;;;;;;4961790;29;20438;-86
2023/07/08 03:16:12;;;;;;;10.50;9.60;;;;;;;;;;4960270;28;20453;-85
2023/07/08 03:18:46;;;;;;;12.53;10.50;;;;;;;;;;4956485;29;20445;-85
2023/07/08 03:21:15;;;;;;;11.00;10.00;;;;;;;;;;4961123;29;20433;-87
2023/07/08 03:23:43;;;;;;;11.93;9.97;;;;;;;;;;4972591;28;20428;-85
2023/07/08 03:26:15;;;;;;;10.37;9.40;;;;;;;;;;4974355;28;20472;-84
2023/07/08 03:28:43;;;;;;;10.90;9.90;;;;;;;;;;4974238;28;20444;-86
2023/07/08 03:31:10;;;;;;;12.53;11.23;;;;;;;;;;4961821;28;20518;-86
2023/07/08 03:33:38;;;;;;;11.50;9.13;;;;;;;;;;4962225;28;20752;-88
2023/07/08 03:36:09;;;;;;;9.50;8.70;;;;;;;;;;4965214;28;20821;-86
2023/07/08 03:38:37;;;;;;;11.43;9.43;;;;;;;;;;4961096;28;20456;-85
2023/07/08 03:41:05;;;;;;;9.60;8.60;;;;;;;;;;4959766;29;20513;-86
2023/07/08 03:43:32;;;;;;;10.03;8.60;;;;;;;;;;4952649;29;20503;-87
2023/07/08 03:46:00;;;;;;;8.57;7.83;;;;;;;;;;4961653;28;20691;-86
2023/07/08 03:48:28;;;;;;;9.63;7.80;;;;;;;;;;4953935;29;20457;-84
2023/07/08 03:50:55;;;;;;;9.50;8.50;;;;;;;;;;4966029;29;20430;-83
2023/07/08 03:53:23;;;;;;;8.90;8.03;;;;;;;;;;4966447;28;20515;-84
2023/07/08 03:55:50;;;;;;;9.07;8.10;;;;;;;;;;4961338;29;20513;-83
2023/07/08 03:58:18;;;;;;;10.17;8.57;;;;;;;;;;4962906;29;20456;-84
2023/07/08 04:00:45;;;;;;;9.83;8.93;;;;;;;;;;4960863;28;20495;-83
2023/07/08 04:03:12;;;;;;;8.63;7.73;;;;;;;;;;4960589;28;20451;-86
2023/07/08 04:05:40;;;;;;;7.87;7.17;;;;;;;;;;4961226;28;20670;-85
2023/07/08 04:08:07;;;;;;;9.93;7.87;;;;;;;;;;4955740;29;20454;-85
2023/07/08 04:10:37;;;;;;;9.10;8.20;;;;;;;;;;4961121;29;20780;-85
2023/07/08 04:13:04;;;;;;;9.70;7.60;;;;;;;;;;4960612;28;20784;-86
2023/07/08 04:15:32;;;;;;;8.77;7.97;;;;;;;;;;4960443;29;20468;-84
2023/07/08 04:17:59;;;;;;;9.80;7.73;;;;;;;;;;4960544;28;20484;-84
2023/07/08 04:20:27;;;;;;;8.40;7.23;;;;;;;;;;4972394;28;20488;-84
2023/07/08 04:22:54;;;;;;;7.87;7.13;;;;;;;;;;4973308;28;20473;-82
2023/07/08 04:25:24;;;;;;;8.90;8.10;;;;;;;;;;4960254;28;20424;-82
2023/07/08 04:27:55;;;;;;;8.90;7.97;;;;;;;;;;4972976;28;20404;-82
2023/07/08 04:30:23;;;;;;;8.47;7.70;;;;;;;;;;4971538;29;20565;-82
2023/07/08 04:32:52;;;;;;;9.20;7.77;;;;;;;;;;4972251;28;20441;-84
2023/07/08 04:35:19;;;;;;;8.17;7.47;;;;;;;;;;4974153;28;20430;-83
2023/07/08 04:37:47;;;;;;;8.57;7.50;;;;;;;;;;4973917;28;20689;-84
2023/07/08 04:40:18;;;;;;;10.73;8.00;;;;;;;;;;4972224;28;20439;-84
2023/07/08 04:42:47;;;;;;;9.30;6.80;;;;;;;;;;4967455;28;20717;-84
2023/07/08 04:45:16;;;;;;;7.97;7.33;;;;;;;;;;4960482;28;20499;-84
2023/07/08 04:47:46;;;;;;;7.27;6.67;;;;;;;;;;4959978;28;20782;-83
2023/07/08 04:50:14;;;;;;;8.60;7.20;;;;;;;;;;4959759;28;20665;-85
2023/07/08 04:52:42;;;;;;;7.63;6.73;;;;;;;;;;4958377;29;20430;-82
2023/07/08 04:55:09;;;;;;;8.00;6.93;;;;;;;;;;4957770;29;20532;-83
2023/07/08 04:57:37;;;;;;;7.80;7.17;;;;;;;;;;4960436;29;20508;-82
2023/07/08 05:00:08;;;;;;;11.17;7.73;;;;;;;;;;4961056;28;20434;-83
2023/07/08 05:02:35;;;;;;;8.27;7.50;;;;;;;;;;4959644;28;20481;-82
2023/07/08 05:05:03;;;;;;;7.60;7.00;;;;;;;;;;4962505;28;20449;-81
2023/07/08 05:07:30;;;;;;;9.17;7.20;;;;;;;;;;4957846;29;20453;-81
2023/07/08 05:09:58;;;;;;;7.53;6.83;;;;;;;;;;4959003;28;20483;-81
2023/07/08 05:12:26;;;;;;;8.10;7.30;;;;;;;;;;4959361;29;20483;-82
2023/07/08 05:14:54;;;;;;;7.90;7.30;;;;;;;;;;4950182;28;20465;-81
2023/07/08 05:17:21;;;;;;;9.97;7.37;;;;;;;;;;4959630;28;20415;-81
2023/07/08 05:19:50;;;;;;;8.77;7.73;;;;;;;;;;4954243;29;20428;-80
2023/07/08 05:22:22;;;;;;;8.70;7.80;;;;;;;;;;4958346;28;20463;-80
2023/07/08 05:24:52;;;;;;;10.10;6.90;;;;;;;;;;4956377;28;20439;-79
2023/07/08 05:27:19;;;;;;;8.83;7.70;;;;;;;;;;4959187;28;20420;-81
2023/07/08 05:29:49;;;;;;;7.53;6.87;;;;;;;;;;4959403;28;20487;-79
2023/07/08 05:32:17;;;;;;;8.43;7.30;;;;;;;;;;4958929;28;20817;-80
2023/07/08 05:34:45;;;;;;;7.90;7.20;;;;;;;;;;4954221;28;20412;-80
2023/07/08 05:37:13;;;;;;;8.47;7.27;;;;;;;;;;4958042;28;20416;-80
2023/07/08 05:39:41;;;;;;;7.87;7.07;;;;;;;;;;4959328;28;20424;-82
2023/07/08 05:42:09;;;;;;;9.80;6.67;;;;;;;;;;4959081;29;20706;-81
2023/07/08 05:44:36;;;;;;;14.43;10.37;;;;;;;;;;4955940;28;20855;-82
2023/07/08 05:47:04;;;;;;;6.97;6.33;;;;;;;;;;4958534;28;20827;-79
2023/07/08 05:49:32;;;;;;;20.53;17.77;;;;;;;;;;4956713;28;20526;-79
2023/07/08 05:52:05;;;;;;;10.47;9.37;;;;;;;;;;4957705;29;20472;-80
2023/07/08 05:54:33;;;;;;;13.07;11.80;;;;;;;;;;4950140;29;20648;-79
2023/07/08 05:57:00;;;;;;;14.07;12.80;;;;;;;;;;4964347;28;20435;-87
2023/07/08 05:59:28;;;;;;;7.43;6.73;;;;;;;;;;4968778;28;20499;-79
2023/07/08 06:01:55;;;;;;;8.77;7.00;;;;;;;;;;4967175;28;20424;-80
2023/07/08 06:04:23;;;;;;;12.90;8.47;;;;;;;;;;4958067;28;20451;-83
2023/07/08 06:06:51;;;;;;;7.93;7.10;;;;;;;;;;4957970;29;20424;-80
2023/07/08 06:09:18;;;;;;;13.47;8.80;;;;;;;;;;4958059;28;20446;-81
2023/07/08 06:11:45;;;;;;;9.30;7.90;;;;;;;;;;4958087;29;20491;-82
2023/07/08 06:14:13;;;;;;;10.73;7.50;;;;;;;;;;4958988;29;20490;-82
2023/07/08 06:16:40;;;;;;;8.73;7.93;;;;;;;;;;4960153;28;20451;-81
2023/07/08 06:19:10;;;;;;;7.40;6.77;;;;;;;;;;4962179;28;20771;-80
2023/07/08 06:21:38;;;;;;;11.20;10.00;;;;;;;;;;4958195;29;20752;-80
2023/07/08 06:24:06;;;;;;;6.90;6.40;;;;;;;;;;4958921;28;20489;-80
2023/07/08 06:26:34;;;;;;;7.87;7.27;;;;;;;;;;4957415;28;20643;-81
2023/07/08 06:29:01;;;;;;;6.60;6.00;;;;;;;;;;4959738;28;20773;-80
2023/07/08 06:31:29;;;;;;;7.50;6.80;;;;;;;;;;4958789;28;20427;-82
2023/07/08 06:33:57;;;;;;;6.73;6.10;;;;;;;;;;4957278;28;20428;-86
2023/07/08 06:36:25;;;;;;;7.17;6.57;;;;;;;;;;4958844;28;20498;-82
2023/07/08 06:38:53;;;;;;;8.20;7.50;;;;;;;;;;4957920;29;20910;-81
2023/07/08 06:41:20;;;;;;;8.03;6.83;;;;;;;;;;4958567;28;20412;-81
2023/07/08 06:43:48;;;;;;;7.07;6.47;;;;;;;;;;4956667;28;20477;-82
2023/07/08 06:46:15;;;;;;;7.40;6.80;;;;;;;;;;4961045;28;20508;-80
2023/07/08 06:48:42;;;;;;;7.50;6.33;;;;;;;;;;4964077;28;20447;-79
2023/07/08 06:51:13;;;;;;;7.17;6.43;;;;;;;;;;4962543;28;20424;-81
2023/07/08 06:53:41;;;;;;;12.53;6.23;;;;;;;;;;4963408;28;20479;-80
2023/07/08 06:56:11;;;;;;;6.50;5.90;;;;;;;;;;4962199;28;20512;-80
2023/07/08 06:58:39;;;;;;;8.30;7.33;;;;;;;;;;4962608;28;20917;-83
2023/07/08 07:01:06;;;;;;;6.07;5.60;;;;;;;;;;4962935;28;20449;-81
2023/07/08 07:03:36;;;;;;;6.63;5.83;;;;;;;;;;4960686;29;20773;-82
2023/07/08 07:06:08;;;;;;;6.00;5.40;;;;;;;;;;4961990;29;20472;-80
2023/07/08 07:08:35;;;;;;;4.87;4.57;;;;;;;;;;4965549;29;20486;-84
2023/07/08 07:11:03;;;;;;;6.47;5.90;;;;;;;;;;4961454;28;20457;-84
2023/07/08 07:13:44;;;;;;;5.40;5.00;;;;;;;;;;4955188;28;20438;-83
2023/07/08 07:16:12;;;;;;;5.13;4.63;;;;;;;;;;4954269;28;20703;-82
2023/07/08 07:18:40;;;;;;;5.33;4.90;;;;;;;;;;4945627;29;20513;-84
2023/07/08 07:21:07;;;;;;;6.73;6.23;;;;;;;;;;4953104;28;20642;-82
2023/07/08 07:23:35;;;;;;;5.47;4.97;;;;;;;;;;4955554;29;20901;-82
2023/07/08 07:26:03;;;;;;;5.43;5.00;;;;;;;;;;4962713;28;20508;-83
2023/07/08 07:28:33;;;;;;;5.30;4.90;;;;;;;;;;4957031;28;20540;-85
2023/07/08 07:31:05;;;;;;;5.10;4.73;;;;;;;;;;4958800;29;20445;-84
2023/07/08 07:33:34;;;;;;;4.40;4.00;;;;;;;;;;4955086;28;20773;-82
2023/07/08 07:36:02;;;;;;;4.40;4.10;;;;;;;;;;4961758;28;20537;-86
2023/07/08 07:38:33;;;;;;;5.47;5.07;;;;;;;;;;4958134;28;20496;-83
2023/07/08 07:41:05;;;;;;;5.70;5.10;;;;;;;;;;4962133;28;20508;-82
2023/07/08 07:43:34;;;;;;;5.50;5.00;;;;;;;;;;4945855;28;20473;-83
2023/07/08 07:46:05;;;;;;;4.67;4.37;;;;;;;;;;4958225;29;20448;-84
2023/07/08 07:48:33;;;;;;;4.20;4.00;;;;;;;;;;4958006;28;20451;-82
2023/07/08 07:51:00;;;;;;;5.00;4.60;;;;;;;;;;4961419;28;20449;-80
2023/07/08 07:53:29;;;;;;;4.40;4.10;;;;;;;;;;4955005;28;20460;-83
2023/07/08 07:55:59;;;;;;;4.73;4.43;;;;;;;;;;4964108;28;20836;-87
2023/07/08 07:58:28;;;;;;;6.00;4.37;;;;;;;;;;4957412;29;20453;-85
2023/07/08 08:01:05;;;;;;;4.87;4.53;;;;;;;;;;4962083;28;20603;-86
2023/07/08 08:03:40;;;;;;;4.50;4.10;;;;;;;;;;4953680;29;20667;-84
2023/07/08 08:06:10;;;;;;;4.57;4.27;;;;;;;;;;4962196;28;20445;-85
2023/07/08 08:08:38;;;;;;;4.70;4.40;;;;;;;;;;4951779;29;20480;-85
2023/07/08 08:11:05;;;;;;;4.90;4.60;;;;;;;;;;4957476;29;20590;-85
2023/07/08 08:13:36;;;;;;;4.90;4.60;;;;;;;;;;4948300;29;20492;-85
2023/07/08 08:16:05;;;;;;;5.30;5.00;;;;;;;;;;4960187;29;20514;-82
2023/07/08 08:18:32;;;;;;;5.40;5.00;;;;;;;;;;4965841;28;20850;-83
2023/07/08 08:21:03;;;;;;;4.70;4.30;;;;;;;;;;4963327;28;20421;-87
2023/07/08 08:23:36;;;;;;;5.00;4.70;;;;;;;;;;4954481;28;20516;-85
2023/07/08 08:26:04;;;;;;;4.93;4.63;;;;;;;;;;4960260;29;20641;-86
2023/07/08 08:28:34;;;;;;;4.40;4.10;;;;;;;;;;4950673;29;20489;-82
2023/07/08 08:31:02;;;;;;;5.53;4.50;;;;;;;;;;4956928;29;20461;-83
2023/07/08 08:33:29;;;;;;;6.57;4.20;;;;;;;;;;4953920;28;20495;-82
2023/07/08 08:36:03;;;;;;;4.07;3.83;;;;;;;;;;4950408;29;20453;-83
2023/07/08 08:38:37;;;;;;;5.10;4.23;;;;;;;;;;4955199;28;20461;-80
2023/07/08 08:41:10;;;;;;;4.50;4.10;;;;;;;;;;4949978;29;20740;-81
2023/07/08 08:43:42;;;;;;;4.30;4.00;;;;;;;;;;4955499;29;20481;-87
2023/07/08 08:46:40;;;;;;;4.30;4.00;;;;;;;;;;4958403;28;20445;-86
2023/07/08 08:49:22;;;;;;;4.43;4.00;;;;;;;;;;4954893;28;20788;-84
2023/07/08 08:51:58;;;;;;;4.90;4.53;;;;;;;;;;4963406;28;20758;-83
2023/07/08 08:54:26;;;;;;;4.37;4.07;;;;;;;;;;4950242;28;20453;-87
2023/07/08 08:56:54;;;;;;;4.47;4.17;;;;;;;;;;4959168;28;20582;-81
2023/07/08 08:59:21;;;;;;;4.13;3.93;;;;;;;;;;4951734;29;20445;-87
2023/07/08 09:01:52;;;;;;;4.60;4.30;;;;;;;;;;4951710;28;20425;-82
2023/07/08 09:04:23;;;;;;;4.80;4.50;;;;;;;;;;4953834;28;20552;-84
2023/07/08 09:06:53;;;;;;;4.30;4.10;;;;;;;;;;4960748;28;20457;-80
2023/07/08 09:09:24;;;;;;;4.57;4.27;;;;;;;;;;4961371;28;20513;-85
2023/07/08 09:11:59;;;;;;;4.93;4.57;;;;;;;;;;4966515;28;20450;-82
2023/07/08 09:14:28;;;;;;;4.90;4.60;;;;;;;;;;4956230;29;20452;-84
2023/07/08 09:17:16;;;;;;;4.60;4.27;;;;;;;;;;4956374;28;20561;-84
2023/07/08 09:19:55;;;;;;;4.50;4.30;;;;;;;;;;4953681;29;20446;-85
2023/07/08 09:22:32;;;;;;;5.67;5.27;;;;;;;;;;4952050;28;20740;-86
2023/07/08 09:25:04;;;;;;;4.93;4.63;;;;;;;;;;4947801;28;20477;-80
2023/07/08 09:27:35;;;;;;;4.90;4.50;;;;;;;;;;4946418;28;20488;-84
2023/07/08 09:30:03;;;;;;;5.27;4.87;;;;;;;;;;4958207;28;20539;-81
2023/07/08 09:32:33;;;;;;;5.00;4.70;;;;;;;;;;4958126;28;20453;-84
2023/07/08 09:35:17;;;;;;;4.53;4.23;;;;;;;;;;4959371;29;20445;-84
2023/07/08 09:37:48;;;;;;;6.07;4.43;;;;;;;;;;4952472;28;20449;-83
2023/07/08 09:40:28;;;;;;;5.30;4.90;;;;;;;;;;4953544;28;20526;-85
2023/07/08 09:43:00;;;;;;;5.27;4.90;;;;;;;;;;4960644;28;20476;-85
2023/07/08 09:45:30;;;;;;;5.23;4.83;;;;;;;;;;4957733;28;20509;-87
2023/07/08 09:48:02;;;;;;;4.70;4.40;;;;;;;;;;4961149;28;20518;-83
2023/07/08 09:50:36;;;;;;;5.03;4.63;;;;;;;;;;4956882;28;20444;-82
2023/07/08 09:53:05;;;;;;;5.10;4.70;;;;;;;;;;4962757;28;20496;-87
2023/07/08 09:55:32;;;;;;;5.27;4.87;;;;;;;;;;4960490;28;20457;-89
2023/07/08 09:58:03;;;;;;;4.70;4.30;;;;;;;;;;4957704;29;20761;-85
2023/07/08 10:00:34;;;;;;;4.30;3.90;;;;;;;;;;4962817;28;20800;-82
2023/07/08 10:03:04;;;;;;;4.97;4.57;;;;;;;;;;4951345;29;20506;-84
2023/07/08 10:05:41;;;;;;;6.27;5.70;;;;;;;;;;4959124;29;20434;-85
2023/07/08 10:08:29;;;;;;;4.40;4.13;;;;;;;;;;4960792;29;20548;-85
2023/07/08 10:11:20;;;;;;;4.60;4.30;;;;;;;;;;4960390;28;20442;-85
2023/07/08 10:13:53;;;;;;;4.90;4.50;;;;;;;;;;4957187;29;20457;-86
2023/07/08 10:16:39;;;;;;;4.50;4.20;;;;;;;;;;4954312;29;20449;-82
2023/07/08 10:19:22;;;;;;;4.40;4.10;;;;;;;;;;4960132;28;20792;-82
2023/07/08 10:22:16;;;;;;;4.13;3.83;;;;;;;;;;4960926;29;20455;-82
2023/07/08 10:25:07;;;;;;;4.20;3.90;;;;;;;;;;4966639;28;20502;-87
2023/07/08 10:27:37;;;;;;;4.23;3.73;;;;;;;;;;4965460;29;20440;-83
2023/07/08 10:30:27;;;;;;;4.53;4.30;;;;;;;;;;4965162;29;20449;-81
2023/07/08 10:33:14;;;;;;;5.00;4.50;;;;;;;;;;4956485;29;20437;-81
2023/07/08 10:35:49;;;;;;;4.20;4.00;;;;;;;;;;4964168;29;20445;-83
2023/07/08 10:38:20;;;;;;;4.63;4.33;;;;;;;;;;4965617;28;20464;-84
2023/07/08 10:41:01;;;;;;;4.70;4.40;;;;;;;;;;4960643;29;20508;-89
2023/07/08 10:43:29;;;;;;;5.10;4.70;;;;;;;;;;4965038;29;20726;-86
2023/07/08 10:46:01;;;;;;;4.53;4.23;;;;;;;;;;4963888;29;20677;-85
2023/07/08 10:48:50;;;;;;;4.70;4.40;;;;;;;;;;4962313;29;20463;-90
2023/07/08 10:51:32;;;;;;;4.83;4.43;;;;;;;;;;4963427;29;20825;-83
2023/07/08 10:54:18;;;;;;;4.60;4.30;;;;;;;;;;4965394;28;20505;-88
2023/07/08 10:56:51;;;;;;;6.10;5.63;;;;;;;;;;4960344;29;20650;-88
2023/07/08 10:59:45;;;;;;;5.43;5.03;;;;;;;;;;4957868;28;20752;-82
2023/07/08 11:02:25;;;;;;;4.80;4.50;;;;;;;;;;4970164;28;20455;-84
2023/07/08 11:05:02;;;;;;;4.77;4.47;;;;;;;;;;4970657;28;20536;-86
2023/07/08 11:07:46;;;;;;;4.60;4.20;;;;;;;;;;4968266;28;20467;-83
2023/07/08 11:10:21;;;;;;;5.60;5.20;;;;;;;;;;4969434;28;20441;-87
2023/07/08 11:13:02;;;;;;;5.83;5.30;;;;;;;;;;4965832;29;20429;-88
2023/07/08 11:15:42;;;;;;;5.60;5.10;;;;;;;;;;4965112;28;20445;-88
2023/07/08 11:18:17;;;;;;;5.10;4.70;;;;;;;;;;4961894;28;20641;-85
2023/07/08 11:20:58;;;;;;;4.80;4.50;;;;;;;;;;4964145;29;20455;-83
2023/07/08 11:23:34;;;;;;;5.27;4.77;;;;;;;;;;4963790;29;20581;-90
2023/07/08 11:26:42;;;;;;;6.20;5.70;;;;;;;;;;4965853;28;20443;-87
2023/07/08 11:29:19;;;;;;;5.80;5.30;;;;;;;;;;4964305;29;20454;-84
2023/07/08 11:31:47;;;;;;;4.63;4.33;;;;;;;;;;4964438;28;20550;-88
2023/07/08 11:34:21;;;;;;;4.83;4.50;;;;;;;;;;4966764;28;20455;-85
2023/07/08 11:37:13;;;;;;;4.70;4.40;;;;;;;;;;4958399;28;20677;-87
2023/07/08 11:39:46;;;;;;;4.50;4.10;;;;;;;;;;4962891;29;20409;-88
2023/07/08 11:42:15;;;;;;;4.53;4.23;;;;;;;;;;4963764;28;20442;-84
2023/07/08 11:44:47;;;;;;;4.97;4.67;;;;;;;;;;4957362;28;20477;-85
2023/07/08 11:47:45;;;;;;;5.20;4.80;;;;;;;;;;4957412;28;20441;-87
2023/07/08 11:50:25;;;;;;;5.70;5.23;;;;;;;;;;4963946;29;20433;-85
2023/07/08 11:52:59;;;;;;;4.57;4.27;;;;;;;;;;4956285;28;20512;-85
2023/07/08 11:55:51;;;;;;;4.30;4.00;;;;;;;;;;4964052;28;20457;-88
2023/07/08 11:58:50;;;;;;;4.97;4.67;;;;;;;;;;4963318;28;20454;-84
2023/07/08 12:01:20;;;;;;;4.93;4.53;;;;;;;;;;4962621;29;20516;-85
2023/07/08 12:03:53;;;;;;;5.40;5.00;;;;;;;;;;4959549;28;20809;-84
2023/07/08 12:06:31;;;;;;;4.73;4.43;;;;;;;;;;4962518;29;20449;-82
2023/07/08 12:09:15;;;;;;;4.90;4.57;;;;;;;;;;4965160;28;20433;-82
2023/07/08 12:11:47;;;;;;;6.43;4.80;;;;;;;;;;4958169;29;20445;-86
2023/07/08 12:14:17;;;;;;;4.60;4.30;;;;;;;;;;4968491;28;20476;-85
2023/07/08 12:16:54;;;;;;;8.93;7.37;;;;;;;;;;4972398;29;20430;-87
2023/07/08 12:19:26;;;;;;;10.27;9.30;;;;;;;;;;4974040;28;20460;-85
2023/07/08 12:21:56;;;;;;;4.70;4.33;;;;;;;;;;4968654;28;20466;-87
2023/07/08 12:24:29;;;;;;;4.43;4.13;;;;;;;;;;4967696;28;20554;-84
2023/07/08 12:27:01;;;;;;;5.67;5.20;;;;;;;;;;4958212;29;20485;-91
2023/07/08 12:29:29;;;;;;;4.93;4.63;;;;;;;;;;4961997;28;20444;-89
2023/07/08 12:31:57;;;;;;;5.13;4.73;;;;;;;;;;4957327;29;20428;-87
2023/07/08 12:34:25;;;;;;;5.13;4.83;;;;;;;;;;4956349;28;20486;-86
2023/07/08 12:36:55;;;;;;;5.50;5.00;;;;;;;;;;4963151;28;20460;-86
2023/07/08 12:39:22;;;;;;;5.20;4.77;;;;;;;;;;4961073;28;20488;-85
2023/07/08 12:41:51;;;;;;;5.03;4.67;;;;;;;;;;4963205;28;20456;-84
2023/07/08 12:44:19;;;;;;;5.07;4.53;;;;;;;;;;4962541;28;20828;-83
2023/07/08 12:46:48;;;;;;;4.87;4.57;;;;;;;;;;4962861;29;20453;-80
2023/07/08 12:49:18;;;;;;;5.03;4.73;;;;;;;;;;4962917;29;20453;-87
2023/07/08 12:52:06;;;;;;;5.63;5.23;;;;;;;;;;4956325;29;20997;-85
2023/07/08 12:54:35;;;;;;;5.10;4.70;;;;;;;;;;4961466;29;20714;-89
2023/07/08 12:57:03;;;;;;;4.80;4.40;;;;;;;;;;4962003;28;20509;-83
2023/07/08 12:59:38;;;;;;;5.73;5.23;;;;;;;;;;4962776;28;20465;-87
2023/07/08 13:02:15;;;;;;;4.90;4.43;;;;;;;;;;4963852;28;20449;-85
2023/07/08 13:04:43;;;;;;;7.00;4.90;;;;;;;;;;4961075;29;20477;-86
2023/07/08 13:07:27;;;;;;;5.30;4.80;;;;;;;;;;4961424;28;20499;-88
2023/07/08 13:10:00;;;;;;;5.70;5.20;;;;;;;;;;4957706;29;20488;-85
2023/07/08 13:12:44;;;;;;;5.17;4.70;;;;;;;;;;4961330;28;20448;-84
2023/07/08 13:15:30;;;;;;;5.57;4.90;;;;;;;;;;4963481;29;20456;-88
2023/07/08 13:18:00;;;;;;;9.57;5.00;;;;;;;;;;4962000;28;20460;-87
2023/07/08 13:20:28;;;;;;;5.03;4.63;;;;;;;;;;4975914;28;20446;-84
2023/07/08 13:23:14;;;;;;;5.03;4.60;;;;;;;;;;4961468;29;20524;-83
2023/07/08 13:25:50;;;;;;;5.97;5.10;;;;;;;;;;4958485;28;20477;-86
2023/07/08 13:28:28;;;;;;;5.60;5.20;;;;;;;;;;4961389;28;20452;-87
2023/07/08 13:31:57;;;;;;;5.33;4.90;;;;;;;;;;4959665;29;20497;-88
2023/07/08 13:34:25;;;;;;;6.63;4.93;;;;;;;;;;4961268;29;20464;-85
2023/07/08 13:36:52;;;;;;;4.40;4.10;;;;;;;;;;4959497;28;20462;-80
2023/07/08 13:39:36;;;;;;;5.03;4.63;;;;;;;;;;4972478;28;20449;-83
2023/07/08 13:42:07;;;;;;;5.33;4.93;;;;;;;;;;4963414;29;20449;-81
2023/07/08 13:44:34;;;;;;;4.37;4.03;;;;;;;;;;4959738;29;20822;-84
2023/07/08 13:47:09;;;;;;;4.17;3.90;;;;;;;;;;4958814;28;20449;-87
2023/07/08 13:50:21;;;;;;;5.03;4.63;;;;;;;;;;4957542;28;20682;-89
2023/07/08 13:53:06;;;;;;;;;;;;;;;;;;;;;
2023/07/08 13:55:56;;;;;;;4.33;4.03;;;;;;;;;;4959830;28;20777;-87
2023/07/08 14:01:24;;;;;;;4.90;4.50;;;;;;;;;;4973961;28;20457;-84
2023/07/08 14:04:07;;;;;;;4.70;4.40;;;;;;;;;;4965373;29;20872;-84
2023/07/08 14:06:39;;;;;;;4.57;4.30;;;;;;;;;;4960711;28;20437;-84
2023/07/08 14:09:13;;;;;;;4.33;4.03;;;;;;;;;;4965735;29;20461;-85
2023/07/08 14:11:41;;;;;;;5.10;4.80;;;;;;;;;;4965292;29;20452;-83
2023/07/08 14:14:09;;;;;;;4.70;4.40;;;;;;;;;;4967696;29;20532;-83
2023/07/08 14:16:55;;;;;;;4.40;4.10;;;;;;;;;;4963050;28;20469;-87
2023/07/08 14:19:24;;;;;;;4.23;3.90;;;;;;;;;;4968219;29;20441;-85
2023/07/08 14:22:01;;;;;;;5.17;4.80;;;;;;;;;;4965832;28;20532;-86
2023/07/08 14:24:29;;;;;;;4.60;4.30;;;;;;;;;;4961090;28;20468;-83
2023/07/08 14:26:56;;;;;;;4.87;4.47;;;;;;;;;;4963801;28;20824;-84
2023/07/08 14:29:25;;;;;;;4.53;4.23;;;;;;;;;;4961343;28;20517;-87
2023/07/08 14:31:56;;;;;;;4.17;3.87;;;;;;;;;;4961083;28;20456;-86
2023/07/08 14:34:28;;;;;;;4.63;4.33;;;;;;;;;;4949647;29;20462;-87
2023/07/08 14:37:17;;;;;;;12.67;4.70;;;;;;;;;;4960508;28;20442;-89
2023/07/08 14:39:46;;;;;;;5.03;4.63;;;;;;;;;;4953585;28;20461;-86
2023/07/08 14:42:17;;;;;;;4.73;4.33;;;;;;;;;;4964610;29;20453;-81
2023/07/08 14:44:53;;;;;;;5.00;4.60;;;;;;;;;;4960936;29;20568;-83
2023/07/08 14:47:21;;;;;;;4.73;4.33;;;;;;;;;;4962046;28;20439;-81
2023/07/08 14:49:49;;;;;;;4.90;4.40;;;;;;;;;;4968283;28;20457;-81
2023/07/08 14:52:17;;;;;;;6.17;4.67;;;;;;;;;;4964733;28;20457;-86
2023/07/08 14:54:49;;;;;;;4.77;4.33;;;;;;;;;;4958254;29;20709;-86
2023/07/08 14:57:28;;;;;;;5.40;5.00;;;;;;;;;;4959947;29;20796;-84
2023/07/08 14:59:58;;;;;;;4.87;4.50;;;;;;;;;;4964449;28;20416;-84
2023/07/08 15:02:26;;;;;;;5.17;4.77;;;;;;;;;;4965186;28;20421;-86
2023/07/08 15:04:53;;;;;;;6.27;4.57;;;;;;;;;;4962487;28;20558;-85
2023/07/08 15:07:28;;;;;;;4.90;4.60;;;;;;;;;;4967927;28;20499;-86
2023/07/08 15:10:09;;;;;;;4.73;4.43;;;;;;;;;;4957377;29;20444;-84
2023/07/08 15:12:37;;;;;;;6.93;4.90;;;;;;;;;;4959561;28;20503;-83
2023/07/08 15:15:14;;;;;;;5.33;5.00;;;;;;;;;;4961768;28;20520;-85
2023/07/08 15:17:41;;;;;;;4.60;4.27;;;;;;;;;;4962691;28;20504;-83
2023/07/08 15:20:15;;;;;;;5.43;4.93;;;;;;;;;;4965801;28;20479;-86
2023/07/08 15:22:43;;;;;;;5.20;4.73;;;;;;;;;;4969743;28;20469;-84
2023/07/08 15:25:15;;;;;;;5.40;5.00;;;;;;;;;;4976957;28;20459;-84